createdAt,value
2022-09-27T00:01:22.073Z,27.45
2022-09-27T00:03:50.978Z,28.98
2022-09-27T00:06:27.099Z,27.85
2022-09-27T00:08:56.828Z,25.75
2022-09-27T00:11:37.401Z,30.23
2022-09-27T00:14:07.816Z,36.72
2022-09-27T00:16:39.860Z,40.35
2022-09-27T00:19:12.943Z,34.97
2022-09-27T00:21:42.485Z,28.85
2022-09-27T00:24:16.619Z,28.75
2022-09-27T00:26:45.887Z,28.38
2022-09-27T00:29:16.793Z,28.50
2022-09-27T00:31:46.214Z,31.50
2022-09-27T00:34:26.765Z,25.00
2022-09-27T00:36:56.678Z,24.42
2022-09-27T00:39:26.181Z,23.48
2022-09-27T00:41:55.158Z,23.33
2022-09-27T00:44:30.394Z,21.90
2022-09-27T00:47:07.729Z,22.02
2022-09-27T00:49:55.138Z,23.10
2022-09-27T00:52:29.457Z,23.27
2022-09-27T00:55:08.515Z,21.67
2022-09-27T00:57:38.177Z,23.58
2022-09-27T01:00:13.767Z,22.60
2022-09-27T01:02:47.065Z,21.52
2022-09-27T01:05:18.443Z,22.65
2022-09-27T01:07:47.344Z,22.08
2022-09-27T01:10:18.514Z,23.67
2022-09-27T01:13:03.806Z,22.90
2022-09-27T01:15:51.962Z,24.70
2022-09-27T01:18:47.458Z,23.40
2022-09-27T01:21:39.200Z,23.98
2022-09-27T01:24:19.449Z,24.60
2022-09-27T01:27:18.206Z,22.95
2022-09-27T01:30:19.769Z,23.10
2022-09-27T01:33:04.051Z,22.63
2022-09-27T01:38:25.338Z,22.35
2022-09-27T01:41:13.846Z,22.42
2022-09-27T01:44:04.208Z,28.05
2022-09-27T01:46:56.147Z,29.20
2022-09-27T01:49:54.533Z,31.58
2022-09-27T01:52:29.651Z,29.65
2022-09-27T01:55:01.861Z,33.70
2022-09-27T01:57:38.077Z,23.98
2022-09-27T02:00:10.965Z,22.40
2022-09-27T02:02:54.693Z,21.95
2022-09-27T02:05:30.252Z,25.92
2022-09-27T02:08:06.168Z,24.58
2022-09-27T02:10:45.927Z,23.52
2022-09-27T02:13:49.800Z,25.52
2022-09-27T02:16:36.076Z,24.60
2022-09-27T02:19:14.275Z,23.25
2022-09-27T02:22:01.991Z,27.73
2022-09-27T02:24:43.156Z,27.95
2022-09-27T02:27:52.231Z,26.23
2022-09-27T02:30:21.718Z,27.00
2022-09-27T02:32:50.604Z,27.98
2022-09-27T02:35:29.131Z,26.08
2022-09-27T02:37:58.890Z,28.05
2022-09-27T02:40:34.040Z,30.23
2022-09-27T02:43:05.583Z,29.80
2022-09-27T02:46:00.982Z,28.50
2022-09-27T02:48:45.023Z,24.90
2022-09-27T02:51:29.301Z,23.90
2022-09-27T02:54:31.984Z,25.80
2022-09-27T02:57:23.779Z,25.02
2022-09-27T03:00:02.404Z,24.05
2022-09-27T03:02:37.369Z,21.83
2022-09-27T03:05:30.877Z,21.35
2022-09-27T03:07:59.884Z,22.63
2022-09-27T03:10:30.689Z,20.55
2022-09-27T03:13:02.737Z,21.63
2022-09-27T03:15:31.805Z,21.77
2022-09-27T03:18:01.299Z,22.63
2022-09-27T03:20:30.561Z,20.45
2022-09-27T03:22:59.650Z,17.70
2022-09-27T03:25:28.646Z,19.80
2022-09-27T03:27:57.567Z,17.10
2022-09-27T03:30:26.519Z,19.05
2022-09-27T03:32:55.457Z,19.25
2022-09-27T03:35:24.641Z,18.27
2022-09-27T03:37:53.547Z,15.38
2022-09-27T03:40:22.498Z,17.85
2022-09-27T03:42:52.251Z,20.85
2022-09-27T03:45:21.186Z,19.77
2022-09-27T03:47:50.163Z,16.42
2022-09-27T03:50:19.696Z,17.83
2022-09-27T03:52:48.851Z,17.27
2022-09-27T03:55:17.941Z,17.52
2022-09-27T03:57:48.213Z,14.93
2022-09-27T04:00:17.304Z,14.63
2022-09-27T04:02:46.673Z,18.33
2022-09-27T04:05:15.859Z,14.77
2022-09-27T04:07:51.959Z,18.48
2022-09-27T04:10:21.084Z,16.90
2022-09-27T04:12:50.031Z,15.77
2022-09-27T04:15:19.511Z,18.88
2022-09-27T04:17:48.587Z,17.10
2022-09-27T04:20:18.359Z,17.38
2022-09-27T04:22:48.178Z,18.75
2022-09-27T04:25:17.746Z,18.25
2022-09-27T04:27:48.629Z,18.90
2022-09-27T04:30:18.336Z,17.23
2022-09-27T04:32:47.735Z,19.27
2022-09-27T04:35:35.457Z,19.58
2022-09-27T04:38:04.802Z,18.27
2022-09-27T04:40:36.893Z,21.85
2022-09-27T04:43:06.186Z,19.42
2022-09-27T04:45:35.526Z,17.77
2022-09-27T04:48:04.536Z,15.38
2022-09-27T04:50:35.923Z,17.33
2022-09-27T04:53:06.404Z,18.48
2022-09-27T04:55:35.721Z,16.98
2022-09-27T04:58:05.701Z,18.92
2022-09-27T05:00:35.171Z,18.48
2022-09-27T05:03:04.174Z,18.25
2022-09-27T05:05:33.134Z,22.10
2022-09-27T05:08:02.410Z,20.70
2022-09-27T05:10:31.419Z,17.42
2022-09-27T05:13:00.663Z,17.55
2022-09-27T05:15:30.000Z,18.50
2022-09-27T05:17:59.946Z,18.10
2022-09-27T05:20:30.619Z,18.67
2022-09-27T05:22:59.741Z,17.65
2022-09-27T05:25:29.287Z,18.73
2022-09-27T05:27:59.042Z,18.25
2022-09-27T05:30:28.908Z,18.10
2022-09-27T05:32:57.859Z,19.85
2022-09-27T05:35:27.297Z,19.73
2022-09-27T05:37:57.791Z,16.33
2022-09-27T05:40:40.699Z,23.05
2022-09-27T05:43:10.306Z,22.42
2022-09-27T05:45:39.589Z,21.63
2022-09-27T05:48:09.591Z,21.48
2022-09-27T05:50:38.806Z,16.02
2022-09-27T05:53:08.407Z,16.40
2022-09-27T05:55:37.340Z,15.65
2022-09-27T05:58:12.376Z,18.40
2022-09-27T06:00:41.798Z,13.40
2022-09-27T06:03:13.048Z,15.65
2022-09-27T06:05:42.806Z,15.73
2022-09-27T06:08:13.909Z,14.35
2022-09-27T06:10:43.565Z,15.25
2022-09-27T06:13:16.433Z,13.45
2022-09-27T06:15:48.356Z,15.30
2022-09-27T06:18:19.206Z,17.08
2022-09-27T06:20:48.256Z,13.43
2022-09-27T06:23:20.082Z,13.85
2022-09-27T06:25:49.165Z,15.20
2022-09-27T06:28:21.806Z,13.50
2022-09-27T06:30:52.392Z,16.30
2022-09-27T06:33:22.725Z,15.82
2022-09-27T06:35:51.899Z,12.75
2022-09-27T06:38:22.522Z,14.73
2022-09-27T06:40:51.908Z,14.07
2022-09-27T06:43:22.641Z,14.45
2022-09-27T06:45:52.240Z,13.98
2022-09-27T06:48:21.132Z,15.07
2022-09-27T06:50:50.254Z,15.70
2022-09-27T06:53:20.908Z,16.63
2022-09-27T06:55:49.910Z,14.43
2022-09-27T06:58:37.773Z,15.45
2022-09-27T07:01:06.878Z,16.27
2022-09-27T07:03:40.983Z,14.88
2022-09-27T07:06:19.161Z,14.27
2022-09-27T07:08:52.861Z,14.07
2022-09-27T07:13:51.905Z,14.25
2022-09-27T07:16:21.235Z,15.23
2022-09-27T07:18:51.738Z,14.75
2022-09-27T07:21:20.972Z,13.13
2022-09-27T07:23:50.263Z,14.40
2022-09-27T07:26:19.304Z,14.60
2022-09-27T07:28:48.328Z,17.30
2022-09-27T07:31:18.289Z,15.30
2022-09-27T07:33:47.239Z,13.00
2022-09-27T07:36:16.662Z,11.77
2022-09-27T07:38:45.556Z,13.75
2022-09-27T07:41:15.936Z,15.15
2022-09-27T07:43:46.236Z,15.60
2022-09-27T07:46:15.570Z,15.60
2022-09-27T07:48:44.652Z,16.15
2022-09-27T07:51:13.593Z,15.50
2022-09-27T07:53:42.479Z,16.27
2022-09-27T07:56:11.448Z,15.68
2022-09-27T07:58:41.445Z,15.25
2022-09-27T08:01:10.435Z,14.65
2022-09-27T08:03:39.647Z,15.45
2022-09-27T08:06:08.728Z,15.85
2022-09-27T08:08:37.856Z,14.88
2022-09-27T08:11:17.398Z,13.80
2022-09-27T08:13:47.356Z,15.02
2022-09-27T08:16:16.355Z,14.60
2022-09-27T08:18:45.650Z,15.00
2022-09-27T08:21:15.629Z,15.68
2022-09-27T08:23:45.900Z,13.93
2022-09-27T08:26:14.836Z,16.48
2022-09-27T08:28:43.765Z,13.27
2022-09-27T08:31:12.926Z,15.13
2022-09-27T08:33:41.912Z,16.17
2022-09-27T08:36:14.515Z,15.20
2022-09-27T08:38:43.569Z,14.25
2022-09-27T08:41:34.620Z,16.23
2022-09-27T08:44:30.406Z,14.30
2022-09-27T08:47:05.251Z,14.88
2022-09-27T08:50:03.960Z,15.88
2022-09-27T08:52:38.088Z,15.52
2022-09-27T08:55:18.928Z,15.18
2022-09-27T08:57:54.006Z,14.32
2022-09-27T09:00:23.011Z,14.10
2022-09-27T09:02:51.988Z,16.20
2022-09-27T09:05:39.387Z,15.43
2022-09-27T09:08:31.422Z,14.85
2022-09-27T09:11:58.881Z,15.63
2022-09-27T09:14:35.610Z,14.88
2022-09-27T09:17:45.994Z,15.75
2022-09-27T09:20:20.945Z,16.00
2022-09-27T09:23:19.984Z,15.35
2022-09-27T09:26:19.343Z,14.68
2022-09-27T09:29:15.257Z,12.73
2022-09-27T09:31:53.078Z,14.75
2022-09-27T09:34:42.697Z,15.15
2022-09-27T09:37:35.772Z,16.08
2022-09-27T09:40:29.005Z,15.40
2022-09-27T09:43:07.164Z,13.95
2022-09-27T09:45:44.800Z,15.07
2022-09-27T09:48:33.781Z,14.60
2022-09-27T09:51:10.054Z,14.90
2022-09-27T09:53:54.489Z,14.63
2022-09-27T09:56:46.940Z,21.17
2022-09-27T09:59:31.984Z,22.40
2022-09-27T10:02:25.125Z,15.07
2022-09-27T10:04:54.129Z,15.10
2022-09-27T10:07:24.869Z,14.45
2022-09-27T10:09:56.157Z,15.52
2022-09-27T10:12:25.270Z,17.73
2022-09-27T10:14:55.862Z,14.60
2022-09-27T10:17:28.767Z,15.63
2022-09-27T10:20:00.921Z,15.27
2022-09-27T10:22:48.664Z,14.88
2022-09-27T10:25:19.271Z,14.98
2022-09-27T10:27:52.519Z,14.02
2022-09-27T10:30:27.635Z,15.85
2022-09-27T10:33:16.565Z,16.55
2022-09-27T10:35:48.163Z,16.38
2022-09-27T10:38:37.756Z,15.40
2022-09-27T10:41:27.020Z,15.43
2022-09-27T10:43:56.030Z,17.17
2022-09-27T10:46:27.821Z,15.38
2022-09-27T10:49:33.763Z,16.20
2022-09-27T10:52:09.314Z,15.13
2022-09-27T10:54:41.418Z,15.77
2022-09-27T10:57:16.028Z,14.90
2022-09-27T10:59:47.279Z,15.75
2022-09-27T11:02:29.441Z,14.45
2022-09-27T11:05:32.926Z,15.55
2022-09-27T11:08:04.335Z,15.48
2022-09-27T11:10:37.673Z,15.57
2022-09-27T11:13:18.316Z,16.15
2022-09-27T11:16:21.527Z,16.17
2022-09-27T11:18:59.895Z,15.38
2022-09-27T11:21:53.303Z,14.98
2022-09-27T11:24:44.478Z,15.32
2022-09-27T11:27:28.638Z,17.80
2022-09-27T11:30:24.063Z,17.10
2022-09-27T11:32:58.957Z,16.23
2022-09-27T11:35:48.406Z,16.75
2022-09-27T11:38:51.596Z,17.85
2022-09-27T11:41:36.400Z,15.48
2022-09-27T11:44:28.448Z,16.33
2022-09-27T11:47:13.175Z,15.98
2022-09-27T11:50:19.801Z,16.73
2022-09-27T11:53:07.100Z,17.98
2022-09-27T11:55:54.027Z,17.95
2022-09-27T11:58:29.007Z,16.70
2022-09-27T12:01:18.918Z,16.83
2022-09-27T12:04:21.123Z,18.83
2022-09-27T12:06:56.130Z,19.02
2022-09-27T12:09:47.213Z,28.73
2022-09-27T12:12:26.523Z,22.60
2022-09-27T12:15:07.245Z,25.33
2022-09-27T12:17:41.335Z,24.20
2022-09-27T12:23:36.708Z,29.45
2022-09-27T12:26:18.015Z,21.65
2022-09-27T12:28:52.593Z,19.50
2022-09-27T12:31:33.196Z,20.67
2022-09-27T12:34:20.563Z,21.50
2022-09-27T12:37:09.932Z,21.73
2022-09-27T12:39:48.039Z,22.75
2022-09-27T12:42:31.814Z,24.88
2022-09-27T12:45:00.908Z,24.88
2022-09-27T12:47:47.252Z,26.30
2022-09-27T12:51:11.609Z,26.05
2022-09-27T12:54:11.930Z,25.00
2022-09-27T12:56:55.873Z,26.60
2022-09-27T12:59:53.367Z,25.48
2022-09-27T13:03:10.903Z,25.10
2022-09-27T13:05:47.173Z,24.27
2022-09-27T13:08:28.107Z,27.35
2022-09-27T13:11:24.709Z,24.67
2022-09-27T13:14:04.613Z,27.40
2022-09-27T13:16:43.228Z,28.42
2022-09-27T13:19:37.716Z,26.90
2022-09-27T13:22:09.628Z,29.23
2022-09-27T13:24:46.409Z,29.48
2022-09-27T13:27:24.719Z,28.40
2022-09-27T13:29:54.528Z,26.88
2022-09-27T13:32:29.482Z,26.63
2022-09-27T13:35:11.862Z,30.02
2022-09-27T13:37:48.621Z,29.20
2022-09-27T13:40:31.217Z,23.85
2022-09-27T13:43:12.720Z,25.05
2022-09-27T13:45:59.592Z,26.27
2022-09-27T13:48:37.893Z,24.65
2022-09-27T13:51:34.949Z,26.02
2022-09-27T13:54:27.832Z,24.88
2022-09-27T13:56:57.542Z,26.00
2022-09-27T13:59:46.519Z,26.13
2022-09-27T14:02:27.069Z,24.92
2022-09-27T14:04:58.291Z,25.48
2022-09-27T14:07:38.722Z,26.80
2022-09-27T14:10:13.901Z,26.00
2022-09-27T14:12:45.124Z,27.70
2022-09-27T14:15:41.446Z,29.55
2022-09-27T14:18:16.130Z,29.88
2022-09-27T14:20:53.300Z,31.38
2022-09-27T14:23:27.401Z,32.10
2022-09-27T14:25:59.039Z,29.85
2022-09-27T14:28:31.644Z,30.52
2022-09-27T14:31:18.693Z,29.38
2022-09-27T14:33:47.780Z,29.23
2022-09-27T14:36:50.365Z,30.75
2022-09-27T14:39:33.541Z,28.05
2022-09-27T14:42:04.008Z,29.20
2022-09-27T14:44:33.848Z,31.23
2022-09-27T14:47:23.576Z,31.48
2022-09-27T14:49:58.320Z,30.30
2022-09-27T14:52:34.236Z,29.98
2022-09-27T14:55:20.702Z,30.35
2022-09-27T14:57:56.341Z,29.85
2022-09-27T15:00:30.063Z,29.55
2022-09-27T15:03:02.537Z,29.67
2022-09-27T15:05:34.951Z,29.13
2022-09-27T15:08:07.700Z,29.73
2022-09-27T15:10:37.993Z,29.70
2022-09-27T15:13:08.059Z,29.50
2022-09-27T15:15:40.807Z,31.23
2022-09-27T15:18:33.726Z,32.22
2022-09-27T15:21:02.971Z,32.08
2022-09-27T15:23:41.541Z,33.10
2022-09-27T15:26:17.055Z,31.08
2022-09-27T15:28:51.431Z,33.05
2022-09-27T15:31:30.789Z,32.17
2022-09-27T15:34:00.488Z,32.88
2022-09-27T15:36:55.099Z,33.35
2022-09-27T15:39:44.139Z,32.55
2022-09-27T15:42:16.887Z,32.20
2022-09-27T15:44:49.015Z,31.00
2022-09-27T15:47:36.096Z,28.20
2022-09-27T15:50:26.227Z,29.45
2022-09-27T15:52:59.160Z,27.65
2022-09-27T15:55:30.386Z,28.75
2022-09-27T15:58:01.139Z,29.02
2022-09-27T16:00:31.277Z,27.95
2022-09-27T16:03:00.194Z,29.95
2022-09-27T16:05:30.864Z,28.83
2022-09-27T16:08:00.397Z,28.80
2022-09-27T16:10:37.866Z,29.73
2022-09-27T16:13:06.773Z,29.23
2022-09-27T16:15:35.728Z,29.02
2022-09-27T16:18:05.031Z,28.85
2022-09-27T16:20:33.903Z,28.17
2022-09-27T16:23:02.888Z,28.23
2022-09-27T16:25:31.734Z,26.83
2022-09-27T16:28:05.279Z,27.67
2022-09-27T16:30:34.621Z,31.13
2022-09-27T16:33:04.605Z,28.58
2022-09-27T16:35:33.550Z,28.65
2022-09-27T16:38:02.485Z,26.63
2022-09-27T16:40:31.717Z,27.00
2022-09-27T16:43:00.699Z,29.77
2022-09-27T16:45:33.884Z,29.98
2022-09-27T16:48:03.438Z,30.07
2022-09-27T16:50:50.790Z,27.92
2022-09-27T16:53:20.474Z,29.10
2022-09-27T16:55:49.647Z,26.10
2022-09-27T16:58:18.545Z,26.92
2022-09-27T17:00:47.442Z,25.80
2022-09-27T17:03:16.897Z,25.45
2022-09-27T17:05:46.063Z,26.48
2022-09-27T17:08:15.045Z,26.10
2022-09-27T17:10:47.302Z,26.40
2022-09-27T17:13:16.176Z,26.35
2022-09-27T17:15:45.116Z,26.73
2022-09-27T17:18:14.352Z,27.15
2022-09-27T17:20:43.255Z,26.65
2022-09-27T17:23:12.216Z,27.08
2022-09-27T17:25:41.963Z,26.80
2022-09-27T17:28:10.915Z,27.58
2022-09-27T17:30:46.178Z,27.58
2022-09-27T17:33:15.136Z,28.20
2022-09-27T17:35:45.469Z,28.70
2022-09-27T17:38:14.573Z,27.58
2022-09-27T17:40:43.500Z,27.38
2022-09-27T17:43:12.404Z,27.10
2022-09-27T17:45:41.245Z,28.33
2022-09-27T17:48:28.429Z,27.33
2022-09-27T17:50:57.531Z,29.95
2022-09-27T17:53:26.847Z,31.85
2022-09-27T17:56:02.730Z,32.10
2022-09-27T17:58:32.248Z,30.02
2022-09-27T18:01:05.415Z,29.25
2022-09-27T18:03:36.975Z,29.20
2022-09-27T18:06:10.720Z,29.92
2022-09-27T18:08:40.092Z,28.48
2022-09-27T18:11:14.853Z,29.00
2022-09-27T18:13:45.309Z,29.30
2022-09-27T18:16:16.853Z,28.25
2022-09-27T18:18:51.468Z,26.42
2022-09-27T18:21:23.571Z,26.15
2022-09-27T18:23:54.768Z,25.63
2022-09-27T18:26:24.952Z,26.15
2022-09-27T18:28:56.147Z,25.80
2022-09-27T18:31:25.446Z,25.35
2022-09-27T18:33:54.633Z,26.27
2022-09-27T18:36:26.353Z,24.60
2022-09-27T18:38:57.414Z,23.60
2022-09-27T18:41:28.799Z,24.63
2022-09-27T18:44:01.992Z,23.52
2022-09-27T18:46:36.162Z,23.00
2022-09-27T18:49:11.133Z,24.50
2022-09-27T18:51:44.892Z,23.13
2022-09-27T18:54:19.951Z,22.20
2022-09-27T18:56:50.165Z,22.92
2022-09-27T18:59:21.990Z,23.40
2022-09-27T19:01:51.625Z,23.02
2022-09-27T19:04:28.439Z,24.33
2022-09-27T19:06:59.387Z,26.48
2022-09-27T19:09:28.543Z,24.77
2022-09-27T19:11:57.736Z,25.15
2022-09-27T19:14:26.751Z,25.35
2022-09-27T19:16:55.646Z,22.60
2022-09-27T19:19:25.263Z,23.85
2022-09-27T19:21:54.418Z,22.48
2022-09-27T19:24:24.339Z,24.73
2022-09-27T19:26:54.727Z,23.70
2022-09-27T19:29:23.847Z,24.58
2022-09-27T19:31:52.823Z,25.33
2022-09-27T19:34:21.845Z,24.38
2022-09-27T19:36:50.842Z,23.73
2022-09-27T19:39:20.158Z,24.38
2022-09-27T19:41:49.177Z,23.85
2022-09-27T19:44:18.221Z,23.00
2022-09-27T19:46:47.649Z,23.02
2022-09-27T19:49:16.720Z,22.23
2022-09-27T19:51:46.030Z,23.02
2022-09-27T19:54:15.148Z,22.08
2022-09-27T19:56:44.203Z,22.17
2022-09-27T19:59:13.578Z,22.73
2022-09-27T20:01:43.135Z,21.77
2022-09-27T20:04:14.318Z,22.83
2022-09-27T20:06:43.385Z,19.13
2022-09-27T20:09:12.493Z,19.95
2022-09-27T20:11:41.621Z,19.95
2022-09-27T20:14:10.641Z,20.30
2022-09-27T20:16:41.575Z,19.17
2022-09-27T20:19:11.157Z,18.48
2022-09-27T20:21:40.278Z,18.85
2022-09-27T20:24:09.228Z,18.85
2022-09-27T20:26:39.089Z,18.63
2022-09-27T20:29:09.253Z,18.25
2022-09-27T20:31:56.976Z,17.77
2022-09-27T20:34:31.324Z,16.98
2022-09-27T20:37:00.269Z,18.00
2022-09-27T20:39:29.159Z,18.23
2022-09-27T20:41:58.005Z,16.75
2022-09-27T20:44:27.320Z,15.98
2022-09-27T20:46:56.300Z,17.75
2022-09-27T20:49:25.741Z,18.70
2022-09-27T20:51:54.679Z,16.50
2022-09-27T20:54:23.631Z,18.10
2022-09-27T20:56:52.670Z,14.93
2022-09-27T20:59:23.985Z,15.23
2022-09-27T21:01:54.580Z,16.13
2022-09-27T21:04:24.573Z,16.52
2022-09-27T21:06:53.837Z,15.90
2022-09-27T21:09:22.793Z,14.80
2022-09-27T21:11:53.193Z,15.85
2022-09-27T21:14:22.245Z,16.02
2022-09-27T21:16:51.282Z,16.45
2022-09-27T21:19:20.400Z,16.52
2022-09-27T21:21:49.411Z,15.38
2022-09-27T21:24:18.466Z,15.02
2022-09-27T21:26:47.362Z,16.98
2022-09-27T21:29:16.477Z,15.70
2022-09-27T21:31:45.614Z,14.75
2022-09-27T21:34:14.750Z,15.23
2022-09-27T21:36:43.708Z,16.13
2022-09-27T21:39:13.070Z,17.42
2022-09-27T21:41:42.022Z,16.25
2022-09-27T21:44:12.751Z,16.05
2022-09-27T21:46:43.279Z,17.52
2022-09-27T21:49:12.730Z,15.50
2022-09-27T21:51:46.309Z,18.02
2022-09-27T21:54:17.126Z,18.38
2022-09-27T21:56:46.785Z,14.98
2022-09-27T21:59:17.070Z,17.48
2022-09-27T22:01:47.729Z,16.58
2022-09-27T22:04:16.895Z,18.02
2022-09-27T22:06:46.211Z,18.33
2022-09-27T22:09:17.583Z,16.98
2022-09-27T22:11:48.638Z,17.60
2022-09-27T22:14:20.050Z,16.80
2022-09-27T22:16:49.736Z,18.42
2022-09-27T22:19:19.343Z,18.02
2022-09-27T22:21:48.739Z,18.83
2022-09-27T22:24:19.554Z,17.80
2022-09-27T22:26:50.888Z,17.33
2022-09-27T22:29:20.337Z,17.02
2022-09-27T22:31:49.579Z,17.95
2022-09-27T22:34:29.771Z,17.38
2022-09-27T22:37:01.351Z,18.02
2022-09-27T22:39:30.506Z,17.67
2022-09-27T22:41:59.719Z,16.23
2022-09-27T22:44:28.598Z,18.23
2022-09-27T22:46:57.622Z,16.90
2022-09-27T22:49:26.668Z,16.90
2022-09-27T22:51:55.656Z,22.73
2022-09-27T22:54:24.647Z,17.75
2022-09-27T22:56:58.189Z,23.17
2022-09-27T22:59:28.228Z,18.77
2022-09-27T23:01:57.553Z,18.02
2022-09-27T23:04:26.605Z,18.75
2022-09-27T23:06:56.175Z,19.40
2022-09-27T23:09:25.776Z,19.05
2022-09-27T23:11:55.391Z,20.77
2022-09-27T23:14:24.416Z,21.13
2022-09-27T23:16:54.035Z,18.13
2022-09-27T23:19:24.472Z,19.83
2022-09-27T23:21:53.366Z,19.98
2022-09-27T23:24:22.624Z,19.05
2022-09-27T23:27:11.361Z,19.25
2022-09-27T23:29:40.410Z,18.10
2022-09-27T23:32:09.264Z,17.95
2022-09-27T23:34:38.224Z,17.58
2022-09-27T23:37:07.315Z,21.20
2022-09-27T23:39:36.232Z,18.23
2022-09-27T23:42:05.335Z,18.60
2022-09-27T23:44:34.472Z,18.15
2022-09-27T23:47:03.575Z,18.63
2022-09-27T23:49:33.661Z,17.33
2022-09-27T23:52:02.796Z,18.70
2022-09-27T23:54:32.739Z,17.95
2022-09-27T23:57:03.507Z,18.80
2022-09-27T23:59:32.652Z,19.60
